Time;durP1;ratioP1;P1;durP2;ratioP2;P2;SDS_P1;SDS_P2;PMS_P1;PMS_P2;Temp;Humidity;BMP_temperature;BMP_pressure;BME280_temperature;BME280_humidity;BME280_pressure;Samples;Min_cycle;Max_cycle;Signal;HPM_P1;HPM_P2
2022/08/23 00:00:31;;;;;;;1.30;1.20;;;23.00;26.10;;;;;;5032893;28;20184;-71
2022/08/23 00:02:57;;;;;;;1.30;1.10;;;23.20;26.30;;;;;;5032776;28;20190;-71
2022/08/23 00:05:22;;;;;;;1.30;1.20;;;23.20;25.30;;;;;;5032013;28;20208;-71
2022/08/23 00:07:48;;;;;;;1.30;1.20;;;23.10;26.60;;;;;;5032985;28;20723;-71
2022/08/23 00:10:15;;;;;;;1.30;1.30;;;23.20;25.50;;;;;;5032966;28;20245;-71
2022/08/23 00:12:43;;;;;;;1.30;1.10;;;23.30;25.80;;;;;;5032326;28;20180;-71
2022/08/23 00:15:12;;;;;;;1.30;1.20;;;23.40;25.80;;;;;;5033044;28;20460;-70
2022/08/23 00:17:38;;;;;;;1.30;1.20;;;23.50;26.00;;;;;;5032090;28;20482;-70
2022/08/23 00:20:10;;;;;;;1.30;1.20;;;23.50;26.40;;;;;;5032328;28;20441;-71
2022/08/23 00:22:36;;;;;;;1.30;1.10;;;23.40;25.60;;;;;;5031538;28;20446;-71
2022/08/23 00:25:04;;;;;;;1.30;1.20;;;23.60;25.80;;;;;;5031763;28;20435;-71
2022/08/23 00:27:30;;;;;;;1.30;1.27;;;23.60;25.80;;;;;;5033003;28;20443;-71
2022/08/23 00:29:56;;;;;;;1.30;1.20;;;23.60;25.50;;;;;;5032819;28;20426;-71
2022/08/23 00:32:28;;;;;;;1.30;1.20;;;23.60;25.50;;;;;;5032534;28;20436;-71
2022/08/23 00:34:55;;;;;;;1.30;1.20;;;23.50;25.50;;;;;;5031616;28;20441;-71
2022/08/23 00:37:21;;;;;;;1.30;1.20;;;23.60;25.80;;;;;;5032289;28;20453;-71
2022/08/23 00:39:47;;;;;;;1.30;1.20;;;23.70;25.70;;;;;;5031449;28;20444;-71
2022/08/23 00:48:10;;;;;;;1.30;1.20;;;23.60;26.90;;;;;;5032420;28;20432;-72
2022/08/23 00:50:45;;;;;;;1.30;1.27;;;23.40;27.00;;;;;;5031477;28;20457;-71
2022/08/23 00:53:19;;;;;;;1.30;1.30;;;23.50;25.60;;;;;;5032458;28;20417;-71
2022/08/23 00:55:48;;;;;;;1.30;1.20;;;23.40;27.40;;;;;;5026356;28;20564;-71
2022/08/23 00:58:17;;;;;;;1.30;1.10;;;23.40;27.90;;;;;;5032485;28;20517;-71
2022/08/23 01:00:43;;;;;;;1.30;1.13;;;23.10;28.20;;;;;;5023376;28;20991;-70
2022/08/23 01:03:11;;;;;;;1.30;1.20;;;23.10;28.40;;;;;;5031988;28;20789;-71
2022/08/23 01:05:57;;;;;;;1.30;1.23;;;23.00;28.10;;;;;;5030569;28;20520;-71
2022/08/23 01:08:26;;;;;;;1.30;1.30;;;23.00;27.20;;;;;;5032477;28;20843;-71
2022/08/23 01:11:25;;;;;;;1.30;1.20;;;23.10;27.00;;;;;;5022964;28;20440;-71
2022/08/23 01:13:57;;;;;;;1.30;1.20;;;23.00;28.00;;;;;;5024717;28;20444;-71
2022/08/23 01:16:55;;;;;;;1.30;1.23;;;22.90;27.70;;;;;;5030721;28;21003;-71
2022/08/23 01:19:35;;;;;;;1.30;1.10;;;22.90;28.10;;;;;;5018453;28;20457;-71
2022/08/23 01:22:08;;;;;;;1.30;1.20;;;22.90;28.50;;;;;;5031128;28;20932;-71
2022/08/23 01:24:36;;;;;;;1.30;1.20;;;22.90;29.20;;;;;;5031973;28;20584;-70
2022/08/23 01:27:02;;;;;;;1.30;1.20;;;22.80;29.60;;;;;;5030394;28;20481;-71
2022/08/23 01:29:27;;;;;;;1.30;1.30;;;22.70;28.60;;;;;;5031090;28;20968;-70
2022/08/23 01:31:55;;;;;;;1.30;1.20;;;22.70;29.50;;;;;;5031079;28;20434;-71
2022/08/23 01:34:25;;;;;;;1.30;1.30;;;22.50;29.70;;;;;;5030534;28;20213;-71
2022/08/23 01:36:51;;;;;;;1.50;1.40;;;22.40;29.10;;;;;;5031437;28;20531;-71
2022/08/23 01:39:16;;;;;;;1.30;1.20;;;22.20;29.20;;;;;;5030720;28;20524;-71
2022/08/23 01:41:42;;;;;;;1.30;1.30;;;22.40;28.70;;;;;;5030637;28;20742;-71
2022/08/23 01:44:08;;;;;;;1.30;1.30;;;22.50;29.20;;;;;;5030753;28;20188;-71
2022/08/23 01:46:35;;;;;;;1.30;1.20;;;22.50;30.00;;;;;;5028645;28;20251;-71
2022/08/23 01:49:03;;;;;;;1.30;1.30;;;22.50;29.50;;;;;;5029441;28;20176;-70
2022/08/23 01:51:29;;;;;;;1.30;1.10;;;22.40;28.80;;;;;;5030605;28;20435;-71
2022/08/23 01:53:55;;;;;;;1.30;1.20;;;22.20;30.60;;;;;;5031280;28;20422;-71
2022/08/23 01:56:21;;;;;;;1.30;1.20;;;22.00;31.50;;;;;;5028842;28;20471;-71
2022/08/23 01:58:48;;;;;;;1.30;1.10;;;22.00;31.20;;;;;;5031010;28;20218;-71
2022/08/23 02:01:14;;;;;;;1.30;1.30;;;21.80;32.20;;;;;;5026142;28;20541;-71
2022/08/23 02:03:40;;;;;;;1.30;1.30;;;21.70;31.70;;;;;;5028441;28;20435;-69
2022/08/23 02:06:06;;;;;;;1.30;1.30;;;21.40;30.50;;;;;;5030485;28;21004;-71
2022/08/23 02:11:21;;;;;;;1.30;1.13;;;20.60;33.60;;;;;;5029756;28;20442;-71
2022/08/23 02:13:48;;;;;;;1.30;1.20;;;20.20;35.10;;;;;;5028958;28;20474;-71
2022/08/23 02:16:22;;;;;;;1.30;1.20;;;20.30;35.00;;;;;;5029422;28;20474;-71
2022/08/23 02:18:48;;;;;;;1.30;1.13;;;20.40;35.50;;;;;;5030899;28;20482;-71
2022/08/23 02:21:13;;;;;;;1.30;1.13;;;20.60;35.00;;;;;;5030651;28;20439;-71
2022/08/23 02:23:39;;;;;;;1.30;1.23;;;20.80;34.60;;;;;;5029852;28;20184;-71
2022/08/23 02:26:05;;;;;;;1.30;1.20;;;20.90;34.20;;;;;;5030715;28;20267;-71
2022/08/23 02:28:31;;;;;;;1.30;1.23;;;21.00;33.60;;;;;;5031156;28;20175;-71
2022/08/23 02:30:57;;;;;;;1.30;1.10;;;20.60;33.80;;;;;;5030518;28;20437;-71
2022/08/23 02:33:22;;;;;;;1.30;1.30;;;20.40;35.10;;;;;;5030845;28;20183;-70
2022/08/23 02:35:48;;;;;;;1.30;1.30;;;20.50;36.00;;;;;;5029812;28;20211;-71
2022/08/23 02:38:15;;;;;;;1.30;1.20;;;20.60;36.30;;;;;;5020100;28;20662;-71
2022/08/23 02:40:41;;;;;;;1.30;1.10;;;20.60;36.60;;;;;;5031020;28;20437;-70
2022/08/23 02:43:07;;;;;;;1.30;1.20;;;20.60;36.20;;;;;;5029950;28;20542;-71
2022/08/23 02:45:33;;;;;;;1.30;1.20;;;20.70;35.90;;;;;;5029578;28;20210;-70
2022/08/23 02:48:00;;;;;;;1.30;1.20;;;20.60;36.10;;;;;;5030456;28;20428;-71
2022/08/23 02:50:26;;;;;;;1.30;1.10;;;20.50;37.90;;;;;;5029755;28;20197;-70
2022/08/23 02:52:53;;;;;;;1.30;1.30;;;20.50;37.60;;;;;;5029344;28;20465;-71
2022/08/23 02:55:19;;;;;;;1.30;1.20;;;20.40;37.30;;;;;;5028780;28;20543;-70
2022/08/23 02:57:45;;;;;;;1.30;1.23;;;20.50;36.50;;;;;;5030504;28;20489;-70
2022/08/23 03:00:12;;;;;;;1.30;1.20;;;20.40;37.60;;;;;;5031015;28;20433;-71
2022/08/23 03:02:39;;;;;;;1.30;1.20;;;20.30;37.60;;;;;;5030131;28;20832;-71
2022/08/23 03:05:06;;;;;;;1.30;1.27;;;20.30;38.50;;;;;;5030674;28;20439;-71
2022/08/23 03:07:31;;;;;;;1.30;1.20;;;20.20;38.50;;;;;;5027151;28;20452;-71
2022/08/23 03:09:58;;;;;;;1.30;1.20;;;20.20;39.10;;;;;;5030776;28;20954;-71
2022/08/23 03:12:24;;;;;;;1.30;1.20;;;20.20;38.40;;;;;;5030324;28;20284;-70
2022/08/23 03:14:52;;;;;;;1.30;1.10;;;20.30;38.70;;;;;;5031980;28;20511;-71
2022/08/23 03:17:19;;;;;;;1.30;1.13;;;20.20;38.20;;;;;;5032782;28;20216;-71
2022/08/23 03:19:44;;;;;;;1.30;1.10;;;20.20;38.00;;;;;;5024993;28;20927;-70
2022/08/23 03:22:10;;;;;;;1.30;1.10;;;20.00;38.90;;;;;;5032919;28;20525;-70
2022/08/23 03:24:36;;;;;;;1.30;1.10;;;19.90;39.20;;;;;;5024492;28;20673;-71
2022/08/23 03:27:02;;;;;;;1.30;1.10;;;20.00;39.10;;;;;;5032936;28;20904;-71
2022/08/23 03:29:28;;;;;;;1.30;1.20;;;19.90;40.10;;;;;;5034100;28;20572;-71
2022/08/23 03:31:54;;;;;;;1.30;1.20;;;20.00;40.10;;;;;;5033386;28;20506;-71
2022/08/23 03:34:20;;;;;;;1.30;1.20;;;20.20;38.60;;;;;;5034115;28;20184;-71
2022/08/23 03:36:45;;;;;;;1.30;1.17;;;20.10;38.50;;;;;;5034120;28;20254;-71
2022/08/23 03:39:12;;;;;;;1.30;1.13;;;20.00;38.70;;;;;;5032085;28;20272;-71
2022/08/23 03:41:38;;;;;;;1.30;1.10;;;19.80;39.30;;;;;;5033504;28;20458;-71
2022/08/23 03:44:03;;;;;;;1.30;1.20;;;19.80;40.60;;;;;;5032433;28;20819;-71
2022/08/23 03:46:29;;;;;;;1.30;1.10;;;19.80;38.90;;;;;;5032592;28;20272;-71
2022/08/23 03:48:58;;;;;;;1.30;1.20;;;19.90;39.90;;;;;;5032719;28;20439;-70
2022/08/23 03:51:25;;;;;;;1.30;1.13;;;19.80;39.90;;;;;;5015593;28;20512;-71
2022/08/23 03:53:51;;;;;;;1.30;1.10;;;19.70;39.70;;;;;;5032198;28;20806;-71
2022/08/23 03:56:27;;;;;;;1.30;1.07;;;19.60;40.00;;;;;;5033041;28;20464;-70
2022/08/23 03:58:55;;;;;;;1.30;1.30;;;19.70;39.70;;;;;;5031678;28;20188;-70
2022/08/23 04:01:22;;;;;;;1.30;1.10;;;19.60;41.30;;;;;;5033086;28;20442;-70
2022/08/23 04:03:48;;;;;;;1.30;1.30;;;19.80;39.80;;;;;;5033119;28;20482;-71
2022/08/23 04:06:14;;;;;;;1.30;1.10;;;20.00;38.30;;;;;;5033183;28;21017;-70
2022/08/23 04:08:41;;;;;;;1.30;1.10;;;19.90;39.00;;;;;;5033135;28;20424;-70
2022/08/23 04:11:08;;;;;;;1.30;1.10;;;19.90;39.50;;;;;;5032638;28;20423;-71
2022/08/23 04:13:35;;;;;;;1.30;1.20;;;19.90;40.60;;;;;;5031984;28;20443;-70
2022/08/23 04:16:02;;;;;;;1.30;1.10;;;19.60;40.00;;;;;;5032672;28;20526;-71
2022/08/23 04:18:30;;;;;;;1.30;1.20;;;19.60;40.90;;;;;;5033148;28;20431;-70
2022/08/23 04:20:58;;;;;;;1.30;1.10;;;19.60;39.70;;;;;;5033029;28;20940;-70
2022/08/23 04:23:26;;;;;;;1.30;1.20;;;19.60;40.60;;;;;;5030610;28;20440;-71
2022/08/23 04:25:53;;;;;;;1.30;1.13;;;19.60;40.00;;;;;;5032295;28;20529;-71
2022/08/23 04:28:19;;;;;;;1.30;1.03;;;19.50;40.70;;;;;;5032255;28;20490;-71
2022/08/23 04:30:44;;;;;;;1.30;1.20;;;19.60;40.40;;;;;;5032190;28;20424;-71
2022/08/23 04:33:11;;;;;;;1.30;1.10;;;19.60;40.40;;;;;;5012546;28;22239;-71
2022/08/23 04:35:37;;;;;;;1.30;1.10;;;19.60;41.30;;;;;;5032331;28;20268;-71
2022/08/23 04:38:03;;;;;;;1.30;1.10;;;19.50;40.40;;;;;;5031819;28;20449;-71
2022/08/23 04:43:13;;;;;;;1.30;1.20;;;19.60;41.30;;;;;;5032444;28;20215;-71
2022/08/23 04:45:40;;;;;;;1.30;1.20;;;19.40;40.40;;;;;;5030755;28;20468;-71
2022/08/23 04:48:07;;;;;;;1.30;1.10;;;19.20;40.60;;;;;;5032453;28;20177;-71
2022/08/23 04:50:33;;;;;;;1.30;1.20;;;19.10;40.80;;;;;;5032803;28;20867;-70
2022/08/23 04:52:58;;;;;;;1.30;1.20;;;19.20;40.10;;;;;;5031918;28;20503;-70
2022/08/23 04:55:24;;;;;;;1.30;1.20;;;19.10;40.10;;;;;;5030543;28;20212;-71
2022/08/23 04:57:50;;;;;;;1.30;1.20;;;19.20;41.20;;;;;;5031247;28;20465;-71
2022/08/23 05:00:16;;;;;;;1.30;1.30;;;19.40;40.50;;;;;;5078235;22;20605;-74
2022/08/23 05:02:42;;;;;;;1.30;1.20;;;19.40;40.60;;;;;;5044849;28;20173;-75
2022/08/23 05:05:09;;;;;;;1.30;1.20;;;19.30;41.00;;;;;;5051842;28;20425;-73
2022/08/23 05:07:36;;;;;;;1.30;1.20;;;19.40;41.10;;;;;;5044589;28;20196;-73
2022/08/23 05:10:03;;;;;;;1.30;1.20;;;19.40;41.10;;;;;;5043283;28;20475;-74
2022/08/23 05:12:29;;;;;;;1.30;1.10;;;19.30;41.30;;;;;;5047709;28;20427;-74
2022/08/23 05:14:54;;;;;;;1.30;1.20;;;19.40;41.10;;;;;;5051451;28;20454;-74
2022/08/23 05:17:20;;;;;;;1.30;1.20;;;19.40;41.60;;;;;;5042885;28;20187;-69
2022/08/23 05:19:45;;;;;;;1.30;1.30;;;19.50;41.20;;;;;;5049685;28;20600;-70
2022/08/23 05:22:11;;;;;;;1.30;1.10;;;19.50;40.30;;;;;;5050038;28;20181;-70
2022/08/23 05:24:37;;;;;;;1.30;1.20;;;19.60;40.70;;;;;;5048238;28;20204;-71
2022/08/23 05:27:02;;;;;;;1.30;1.20;;;19.80;41.00;;;;;;5051452;28;20205;-71
2022/08/23 05:29:28;;;;;;;1.30;1.20;;;19.80;41.00;;;;;;5043740;28;20204;-71
2022/08/23 05:31:55;;;;;;;1.30;1.30;;;19.90;41.50;;;;;;5040139;28;20623;-72
2022/08/23 05:34:21;;;;;;;1.30;1.20;;;19.90;41.00;;;;;;5051021;28;20165;-72
2022/08/23 05:36:47;;;;;;;1.30;1.20;;;19.80;40.00;;;;;;5049053;28;20434;-72
2022/08/23 05:39:14;;;;;;;1.30;1.30;;;19.90;40.20;;;;;;5051291;28;20646;-73
2022/08/23 05:41:41;;;;;;;1.30;1.13;;;20.00;39.80;;;;;;5049702;28;20459;-74
2022/08/23 05:44:07;;;;;;;1.30;1.27;;;20.20;41.00;;;;;;5048600;28;20438;-72
2022/08/23 05:46:33;;;;;;;1.30;1.17;;;20.10;40.20;;;;;;5039923;28;20834;-72
2022/08/23 05:48:58;;;;;;;1.30;1.30;;;20.20;40.10;;;;;;5051539;28;20420;-72
2022/08/23 05:51:27;;;;;;;1.30;1.10;;;20.30;38.80;;;;;;5049352;28;20209;-71
2022/08/23 05:53:58;;;;;;;1.30;1.13;;;20.30;39.30;;;;;;5046665;28;20184;-72
2022/08/23 05:56:34;;;;;;;1.30;1.20;;;20.40;38.10;;;;;;5041134;28;20950;-71
2022/08/23 05:59:05;;;;;;;1.30;1.30;;;20.10;37.10;;;;;;5048917;28;20994;-71
2022/08/23 06:01:31;;;;;;;1.30;1.30;;;19.90;37.70;;;;;;5040237;28;20862;-72
2022/08/23 06:03:59;;;;;;;1.30;1.20;;;19.40;38.80;;;;;;5045605;28;20507;-71
2022/08/23 06:06:25;;;;;;;1.30;1.30;;;19.40;39.80;;;;;;5041155;28;20473;-71
2022/08/23 06:08:51;;;;;;;1.30;1.20;;;19.40;39.60;;;;;;5050530;28;20419;-71
2022/08/23 06:11:21;;;;;;;1.30;1.10;;;19.90;40.60;;;;;;5047707;28;20488;-71
2022/08/23 06:13:50;;;;;;;1.30;1.20;;;19.90;37.90;;;;;;5050753;28;20416;-71
2022/08/23 06:16:18;;;;;;;1.30;1.20;;;19.60;39.80;;;;;;5047647;28;20436;-71
2022/08/23 06:18:45;;;;;;;1.30;1.20;;;19.60;39.20;;;;;;5046933;28;20447;-71
2022/08/23 06:21:13;;;;;;;1.30;1.30;;;19.80;39.80;;;;;;5047594;28;20468;-71
2022/08/23 06:23:40;;;;;;;1.30;1.23;;;19.60;38.80;;;;;;5047449;28;20436;-70
2022/08/23 06:26:24;;;;;;;1.30;1.27;;;19.40;37.90;;;;;;5045447;28;20475;-71
2022/08/23 06:28:53;;;;;;;1.30;1.20;;;19.50;38.20;;;;;;5042288;28;20453;-71
2022/08/23 06:34:06;;;;;;;1.30;1.30;;;19.50;36.70;;;;;;5039041;28;20430;-71
2022/08/23 06:36:32;;;;;;;1.30;1.20;;;19.70;37.70;;;;;;5047505;28;20936;-72
2022/08/23 06:38:58;;;;;;;1.30;1.20;;;19.90;36.70;;;;;;5046024;28;20423;-72
2022/08/23 06:41:24;;;;;;;1.30;1.10;;;20.10;37.20;;;;;;5047634;28;20535;-72
2022/08/23 06:43:50;;;;;;;1.43;1.37;;;20.20;36.90;;;;;;5050865;28;20419;-72
2022/08/23 06:46:20;;;;;;;1.30;1.20;;;19.90;36.90;;;;;;5051203;28;20741;-72
2022/08/23 06:48:46;;;;;;;1.30;1.10;;;19.80;37.60;;;;;;5052562;28;20443;-72
2022/08/23 06:51:24;;;;;;;1.30;1.10;;;20.10;37.70;;;;;;5041487;28;20529;-72
2022/08/23 06:53:55;;;;;;;1.30;1.20;;;20.70;35.60;;;;;;5048288;28;20421;-72
2022/08/23 06:56:25;;;;;;;1.30;1.20;;;20.80;35.20;;;;;;5039649;28;20471;-73
2022/08/23 06:58:52;;;;;;;1.30;1.30;;;20.80;35.20;;;;;;5038347;28;20449;-69
2022/08/23 07:01:24;;;;;;;1.30;1.20;;;20.80;35.30;;;;;;5038901;28;20555;-70
2022/08/23 07:03:56;;;;;;;1.30;1.20;;;20.80;34.60;;;;;;5038341;28;20815;-69
2022/08/23 07:06:24;;;;;;;1.30;1.20;;;20.90;35.50;;;;;;5040191;28;20460;-70
2022/08/23 07:08:50;;;;;;;1.30;1.20;;;21.00;34.00;;;;;;5050200;28;20434;-70
2022/08/23 07:11:16;;;;;;;1.30;1.20;;;21.10;33.50;;;;;;5049852;28;20454;-69
2022/08/23 07:13:42;;;;;;;1.30;1.10;;;21.00;34.30;;;;;;5044097;28;20422;-70
2022/08/23 07:16:08;;;;;;;1.30;1.23;;;21.50;34.70;;;;;;5051705;28;20958;-70
2022/08/23 07:18:34;;;;;;;1.30;1.20;;;21.70;34.30;;;;;;5053208;28;20443;-72
2022/08/23 07:21:02;;;;;;;1.30;1.30;;;21.60;32.80;;;;;;5051895;28;20466;-70
2022/08/23 07:23:32;;;;;;;1.30;1.30;;;21.70;32.40;;;;;;5047492;28;20433;-71
2022/08/23 07:25:59;;;;;;;1.30;1.10;;;21.60;32.90;;;;;;5053989;28;20987;-70
2022/08/23 07:28:25;;;;;;;1.30;1.30;;;21.50;33.30;;;;;;5046259;28;20536;-70
2022/08/23 07:30:51;;;;;;;1.30;1.30;;;21.50;33.50;;;;;;5050077;28;20448;-70
2022/08/23 07:33:17;;;;;;;1.30;1.13;;;21.80;33.50;;;;;;5047588;28;20432;-70
2022/08/23 07:35:49;;;;;;;1.30;1.30;;;22.00;32.10;;;;;;5044250;28;20245;-71
2022/08/23 07:38:15;;;;;;;1.30;1.20;;;21.60;33.20;;;;;;5050075;28;20187;-70
2022/08/23 07:40:41;;;;;;;1.30;1.30;;;21.50;33.10;;;;;;5044331;28;20510;-69
2022/08/23 07:43:06;;;;;;;1.30;1.20;;;21.40;33.70;;;;;;5042921;28;20430;-70
2022/08/23 07:45:34;;;;;;;1.30;1.27;;;21.90;32.80;;;;;;5049472;28;20687;-71
2022/08/23 07:48:01;;;;;;;1.30;1.30;;;21.50;32.80;;;;;;5042959;28;20240;-71
2022/08/23 07:50:27;;;;;;;1.30;1.30;;;22.00;34.20;;;;;;5048733;28;20546;-71
2022/08/23 07:52:53;;;;;;;1.30;1.20;;;22.50;31.90;;;;;;5044380;28;20798;-71
2022/08/23 07:55:18;;;;;;;1.30;1.20;;;22.70;31.00;;;;;;5044931;28;20424;-73
2022/08/23 07:57:44;;;;;;;1.30;1.10;;;23.00;30.10;;;;;;5041145;28;20183;-71
2022/08/23 08:00:10;;;;;;;1.30;1.20;;;23.40;29.30;;;;;;5044971;28;20213;-72
2022/08/23 08:02:36;;;;;;;1.30;1.17;;;23.40;29.60;;;;;;5044587;28;20183;-71
2022/08/23 08:05:02;;;;;;;1.30;1.20;;;22.70;30.60;;;;;;5043350;28;20433;-71
2022/08/23 08:07:27;;;;;;;1.30;1.20;;;22.30;31.60;;;;;;5049028;28;20175;-70
2022/08/23 08:09:53;;;;;;;1.30;1.10;;;22.20;32.40;;;;;;5053155;28;20512;-72
2022/08/23 08:12:19;;;;;;;1.30;1.20;;;22.60;32.20;;;;;;5052690;28;20180;-71
2022/08/23 08:14:47;;;;;;;1.30;1.20;;;23.20;31.30;;;;;;5038590;28;20220;-72
2022/08/23 08:17:13;;;;;;;1.30;1.20;;;23.60;30.30;;;;;;5048865;28;20175;-72
2022/08/23 08:19:40;;;;;;;1.30;1.10;;;23.60;30.10;;;;;;5046680;28;20786;-72
2022/08/23 08:22:06;;;;;;;1.30;1.30;;;23.80;29.90;;;;;;5033160;28;20434;-72
2022/08/23 08:24:32;;;;;;;1.30;1.23;;;24.10;29.40;;;;;;5041278;28;20509;-71
2022/08/23 08:26:57;;;;;;;1.30;1.10;;;24.30;29.30;;;;;;5043204;28;20505;-72
2022/08/23 08:29:23;;;;;;;1.30;1.20;;;24.40;28.90;;;;;;5044713;28;20197;-71
2022/08/23 08:31:50;;;;;;;1.30;1.20;;;24.40;28.00;;;;;;5043923;28;20176;-72
2022/08/23 08:34:17;;;;;;;1.30;1.20;;;23.90;28.30;;;;;;5051663;28;20173;-72
2022/08/23 08:36:45;;;;;;;1.30;1.20;;;23.80;29.60;;;;;;5038573;28;20466;-70
2022/08/23 08:39:14;;;;;;;1.23;1.10;;;24.20;28.40;;;;;;5044585;28;20440;-71
2022/08/23 08:42:03;;;;;;;1.30;1.30;;;24.70;27.40;;;;;;5050364;28;20484;-71
2022/08/23 08:44:52;;;;;;;1.23;1.20;;;24.90;27.60;;;;;;5045079;28;20418;-71
2022/08/23 08:47:26;;;;;;;1.30;1.20;;;24.90;28.30;;;;;;5052598;28;20460;-71
2022/08/23 08:50:04;;;;;;;1.30;1.30;;;25.10;27.60;;;;;;5048580;28;20450;-71
2022/08/23 08:52:34;;;;;;;1.30;1.20;;;24.50;28.40;;;;;;5047696;28;20478;-71
2022/08/23 08:55:12;;;;;;;1.30;1.20;;;24.70;28.20;;;;;;5047351;28;21055;-73
2022/08/23 08:57:43;;;;;;;1.30;1.20;;;24.50;28.60;;;;;;5047902;28;20416;-73
2022/08/23 09:00:15;;;;;;;1.27;1.20;;;24.80;28.20;;;;;;5046117;28;21296;-77
2022/08/23 09:02:41;;;;;;;1.27;1.20;;;24.40;28.20;;;;;;5041858;28;20821;-71
2022/08/23 09:05:16;;;;;;;1.30;1.20;;;24.30;28.30;;;;;;5047816;28;20459;-72
2022/08/23 09:08:30;;;;;;;1.30;1.20;;;24.90;27.40;;;;;;5046219;28;20444;-72
2022/08/23 09:11:07;;;;;;;1.20;1.10;;;25.50;27.20;;;;;;5025643;28;20454;-72
2022/08/23 09:13:47;;;;;;;1.30;1.30;;;25.60;26.30;;;;;;5045086;28;21064;-71
2022/08/23 09:16:18;;;;;;;1.30;1.10;;;25.00;26.60;;;;;;5040910;28;20829;-72
2022/08/23 09:18:44;;;;;;;1.27;1.20;;;24.90;26.80;;;;;;5041604;28;20419;-72
2022/08/23 09:21:10;;;;;;;1.20;1.10;;;25.30;25.40;;;;;;5041166;28;20434;-72
2022/08/23 09:23:42;;;;;;;1.20;1.10;;;25.60;24.50;;;;;;5043406;28;20994;-72
2022/08/23 09:26:26;;;;;;;1.20;1.20;;;25.40;25.40;;;;;;5042534;28;20457;-72
2022/08/23 09:28:58;;;;;;;1.27;1.20;;;26.30;24.70;;;;;;5038886;28;20418;-72
2022/08/23 09:31:42;;;;;;;1.20;1.10;;;26.10;24.90;;;;;;5047899;28;20454;-71
2022/08/23 09:34:14;;;;;;;1.20;1.10;;;26.70;25.50;;;;;;5039840;28;20451;-73
2022/08/23 09:36:40;;;;;;;1.30;1.20;;;27.00;23.60;;;;;;5046766;28;20533;-73
2022/08/23 09:39:23;;;;;;;1.20;1.10;;;27.10;24.40;;;;;;5039871;28;20438;-72
2022/08/23 09:41:50;;;;;;;1.20;1.13;;;27.40;23.20;;;;;;5031308;28;20864;-72
2022/08/23 09:44:34;;;;;;;1.23;1.17;;;27.50;24.70;;;;;;5040178;28;20438;-73
2022/08/23 09:47:05;;;;;;;1.20;1.10;;;27.80;24.70;;;;;;5044816;28;20516;-72
2022/08/23 09:49:31;;;;;;;1.30;1.20;;;27.90;22.50;;;;;;5042489;28;20548;-72
2022/08/23 09:52:11;;;;;;;1.30;1.20;;;27.90;21.10;;;;;;5044923;28;20498;-73
2022/08/23 09:54:40;;;;;;;1.20;1.10;;;28.10;22.20;;;;;;5039564;28;20659;-72
2022/08/23 09:57:09;;;;;;;1.20;1.10;;;28.20;20.30;;;;;;5045629;28;20422;-72
2022/08/23 09:59:45;;;;;;;1.20;1.10;;;28.20;24.00;;;;;;5042592;28;21026;-72
2022/08/23 10:02:32;;;;;;;1.20;1.10;;;28.10;21.20;;;;;;5043636;28;20483;-73
2022/08/23 10:05:27;;;;;;;1.23;1.20;;;28.20;20.90;;;;;;5042998;28;20791;-72
2022/08/23 10:07:59;;;;;;;1.20;1.10;;;28.50;19.80;;;;;;5032920;28;20496;-72
2022/08/23 10:10:45;;;;;;;1.20;1.10;;;28.90;19.20;;;;;;5034946;28;21167;-72
2022/08/23 10:13:12;;;;;;;1.23;1.10;;;29.00;18.00;;;;;;5039410;28;20419;-72
2022/08/23 10:15:59;;;;;;;1.20;1.10;;;29.20;18.10;;;;;;5047594;28;20820;-72
2022/08/23 10:18:43;;;;;;;1.20;1.10;;;29.10;18.10;;;;;;5046927;28;20413;-73
2022/08/23 10:21:47;;;;;;;1.20;1.20;;;28.80;19.90;;;;;;5039500;28;20485;-73
2022/08/23 10:24:39;;;;;;;1.30;1.20;;;28.90;18.30;;;;;;5028034;28;20504;-73
2022/08/23 10:30:21;;;;;;;1.30;1.20;;;26.90;17.70;;;;;;5047175;28;20520;-72
2022/08/23 10:32:55;;;;;;;1.20;1.10;;;29.90;19.10;;;;;;5048286;28;20410;-72
2022/08/23 10:35:33;;;;;;;1.30;1.27;;;30.00;17.50;;;;;;5039679;28;20442;-72
2022/08/23 10:38:20;;;;;;;1.20;1.10;;;30.00;19.10;;;;;;5044303;28;20439;-74
2022/08/23 10:40:52;;;;;;;1.20;1.10;;;29.70;16.20;;;;;;5031900;28;20518;-73
2022/08/23 10:43:56;;;;;;;1.20;1.20;;;29.80;16.60;;;;;;5042596;28;20476;-73
2022/08/23 10:46:22;;;;;;;1.27;1.20;;;30.30;15.40;;;;;;5029617;28;20469;-72
2022/08/23 10:48:58;;;;;;;1.20;1.10;;;30.50;16.50;;;;;;5039600;28;20934;-73
2022/08/23 10:51:28;;;;;;;1.20;1.10;;;30.70;16.10;;;;;;5043596;28;20447;-72
2022/08/23 10:54:23;;;;;;;1.30;1.20;;;30.60;15.80;;;;;;5037827;28;20427;-74
2022/08/23 10:56:50;;;;;;;1.20;1.00;;;30.80;15.50;;;;;;5039027;28;20437;-74
2022/08/23 10:59:22;;;;;;;1.20;1.10;;;31.00;17.50;;;;;;5049102;28;20485;-72
2022/08/23 11:01:51;;;;;;;1.20;1.13;;;31.20;17.10;;;;;;5044855;28;20528;-74
2022/08/23 11:04:46;;;;;;;1.20;1.17;;;30.50;15.90;;;;;;5045931;28;20444;-73
2022/08/23 11:07:24;;;;;;;1.20;1.00;;;29.70;15.20;;;;;;5037782;28;20481;-73
2022/08/23 11:10:24;;;;;;;1.20;1.10;;;29.40;16.80;;;;;;5049041;28;20441;-73
2022/08/23 11:13:14;;;;;;;1.20;1.07;;;30.20;17.30;;;;;;5020874;28;20422;-74
2022/08/23 11:15:45;;;;;;;1.20;1.17;;;30.30;15.80;;;;;;5038676;28;20407;-74
2022/08/23 11:18:35;;;;;;;1.20;1.00;;;29.80;17.50;;;;;;5046652;28;20785;-74
2022/08/23 11:21:16;;;;;;;1.20;1.10;;;30.00;15.80;;;;;;5021223;28;20855;-74
2022/08/23 11:23:43;;;;;;;1.20;1.07;;;30.20;17.30;;;;;;5049586;28;20408;-73
2022/08/23 11:26:20;;;;;;;1.20;1.10;;;30.60;15.30;;;;;;5040684;28;20506;-74
2022/08/23 11:28:47;;;;;;;1.20;1.00;;;31.10;15.30;;;;;;5039110;28;20446;-73
2022/08/23 11:31:18;;;;;;;1.20;1.00;;;32.80;14.70;;;;;;5028397;28;20474;-74
2022/08/23 11:34:07;;;;;;;1.20;1.00;;;34.40;11.30;;;;;;5038392;28;20438;-73
2022/08/23 11:36:35;;;;;;;1.20;1.00;;;35.60;11.40;;;;;;5041237;28;20510;-74
2022/08/23 11:39:03;;;;;;;1.20;0.90;;;36.10;10.30;;;;;;5049835;28;20456;-74
2022/08/23 11:41:31;;;;;;;1.20;0.90;;;35.90;10.60;;;;;;5050010;28;20435;-73
2022/08/23 11:44:03;;;;;;;1.20;0.80;;;36.80;10.80;;;;;;5042145;28;20411;-74
2022/08/23 11:46:35;;;;;;;1.20;0.90;;;36.80;7.60;;;;;;5042017;28;20458;-74
2022/08/23 11:49:21;;;;;;;1.20;0.90;;;36.80;7.80;;;;;;5042235;28;20419;-74
2022/08/23 11:51:59;;;;;;;1.20;0.90;;;37.40;7.70;;;;;;5046316;28;20425;-74
2022/08/23 11:54:28;;;;;;;1.20;0.90;;;37.70;6.60;;;;;;5035255;28;20782;-74
2022/08/23 11:57:17;;;;;;;1.20;0.90;;;37.90;7.50;;;;;;5039511;28;20422;-74
2022/08/23 11:59:45;;;;;;;1.20;0.90;;;38.50;7.60;;;;;;5051878;28;20517;-74
2022/08/23 12:02:39;;;;;;;1.20;0.90;;;39.20;6.50;;;;;;5026896;28;20517;-74
2022/08/23 12:05:20;;;;;;;1.20;0.80;;;38.90;6.10;;;;;;5048554;28;20530;-75
2022/08/23 12:08:12;;;;;;;1.20;0.90;;;38.90;5.40;;;;;;5052549;28;20462;-75
2022/08/23 12:10:41;;;;;;;1.20;0.80;;;38.90;5.50;;;;;;5046680;28;20438;-73
2022/08/23 12:13:21;;;;;;;1.20;0.90;;;38.60;5.70;;;;;;5044474;28;20430;-74
2022/08/23 12:16:12;;;;;;;1.20;0.90;;;38.80;4.20;;;;;;5037421;28;20791;-75
2022/08/23 12:18:51;;;;;;;1.20;0.80;;;40.10;4.00;;;;;;5044089;28;20415;-75
2022/08/23 12:21:22;;;;;;;1.20;0.90;;;40.00;4.60;;;;;;5052286;28;20438;-74
2022/08/23 12:23:52;;;;;;;1.20;0.80;;;40.40;3.90;;;;;;5045145;28;21073;-75
2022/08/23 12:26:43;;;;;;;1.20;0.90;;;40.60;2.80;;;;;;5037031;28;20467;-75
2022/08/23 12:29:26;;;;;;;1.20;0.90;;;39.20;4.90;;;;;;5027709;28;20965;-74
2022/08/23 12:31:56;;;;;;;1.20;0.90;;;38.90;4.10;;;;;;5040674;28;20468;-75
2022/08/23 12:34:39;;;;;;;1.20;0.90;;;38.90;5.00;;;;;;5048896;28;20418;-74
2022/08/23 12:37:11;;;;;;;1.20;0.90;;;38.20;5.10;;;;;;5044411;28;20418;-75
2022/08/23 12:39:49;;;;;;;1.20;0.90;;;38.10;6.00;;;;;;5034822;28;20443;-74
2022/08/23 12:42:28;;;;;;;1.20;0.90;;;37.60;4.70;;;;;;5040344;28;20411;-75
2022/08/23 12:45:03;;;;;;;1.20;0.90;;;37.50;5.60;;;;;;5036626;28;20765;-75
2022/08/23 12:47:29;;;;;;;1.20;0.90;;;37.30;6.10;;;;;;5043410;28;20457;-74
2022/08/23 12:50:02;;;;;;;1.20;0.90;;;36.70;5.60;;;;;;5044092;28;20430;-74
2022/08/23 12:52:31;;;;;;;1.20;1.00;;;34.20;7.00;;;;;;5044327;28;20411;-74
2022/08/23 12:54:57;;;;;;;1.20;0.97;;;34.00;8.30;;;;;;5044417;28;20414;-74
2022/08/23 12:57:37;;;;;;;1.20;0.90;;;34.00;7.90;;;;;;5052022;28;20422;-74
2022/08/23 13:00:23;;;;;;;1.20;0.90;;;32.30;9.20;;;;;;5047290;28;20455;-74
2022/08/23 13:03:04;;;;;;;1.20;1.00;;;32.40;9.50;;;;;;5042450;28;20419;-74
2022/08/23 13:05:36;;;;;;;1.20;0.90;;;33.20;9.60;;;;;;5038018;28;20454;-74
2022/08/23 13:08:09;;;;;;;1.20;1.00;;;33.40;8.60;;;;;;5038864;28;20434;-74
2022/08/23 13:10:39;;;;;;;1.20;1.00;;;33.70;8.80;;;;;;5032756;28;20443;-75
2022/08/23 13:13:10;;;;;;;1.20;1.00;;;33.00;9.10;;;;;;5039356;28;20543;-72
2022/08/23 13:15:57;;;;;;;1.20;0.90;;;33.20;10.30;;;;;;5048283;28;20437;-74
2022/08/23 13:18:40;;;;;;;1.20;1.00;;;33.50;9.00;;;;;;5040599;28;20422;-75
2022/08/23 13:21:24;;;;;;;1.20;1.00;;;33.70;9.00;;;;;;5033868;28;20466;-72
2022/08/23 13:24:00;;;;;;;1.20;1.00;;;33.50;8.90;;;;;;5041583;28;20423;-72